Time;durP1;ratioP1;P1;durP2;ratioP2;P2;SDS_P1;SDS_P2;PMS_P1;PMS_P2;Temp;Humidity;BMP_temperature;BMP_pressure;BME280_temperature;BME280_humidity;BME280_pressure;Samples;Min_cycle;Max_cycle;Signal;HPM_P1;HPM_P2
2023/10/25 00:00:55;;;;;;;17.43;14.20;;;;;;;19.67;100.00;95144.81;5041179;28;20111;-83
2023/10/25 00:03:20;;;;;;;16.70;14.17;;;;;;;19.83;100.00;95136.00;5027091;28;20028;-84
2023/10/25 00:05:46;;;;;;;15.93;13.67;;;;;;;20.47;100.00;95128.31;5027123;28;20484;-83
2023/10/25 00:08:12;;;;;;;15.43;13.57;;;;;;;20.62;100.00;95132.25;5054346;28;20028;-84
2023/10/25 00:10:38;;;;;;;15.53;13.20;;;;;;;19.58;100.00;95131.03;5045524;28;20091;-84
2023/10/25 00:13:04;;;;;;;15.00;13.30;;;;;;;20.41;100.00;95126.63;5024854;28;20111;-83
2023/10/25 00:15:29;;;;;;;14.20;12.67;;;;;;;20.35;100.00;95132.16;5039729;28;20040;-83
2023/10/25 00:17:55;;;;;;;16.00;13.13;;;;;;;20.16;100.00;95127.13;5031291;28;20032;-83
2023/10/25 00:20:20;;;;;;;14.40;12.77;;;;;;;20.24;100.00;95126.69;5044427;28;20028;-83
2023/10/25 00:22:46;;;;;;;13.13;11.73;;;;;;;20.19;100.00;95129.31;5023547;28;20560;-84
2023/10/25 00:25:11;;;;;;;14.77;13.20;;;;;;;20.06;100.00;95134.19;5047826;28;20417;-83
2023/10/25 00:27:37;;;;;;;15.53;12.53;;;;;;;19.99;100.00;95129.03;5035478;28;20493;-84
2023/10/25 00:30:03;;;;;;;13.93;12.53;;;;;;;20.09;100.00;95131.03;5045019;28;20028;-84
2023/10/25 00:32:30;;;;;;;15.47;12.33;;;;;;;20.01;100.00;95126.91;5028036;28;20032;-84
2023/10/25 00:34:56;;;;;;;15.37;13.13;;;;;;;20.12;100.00;95125.19;5041431;28;20054;-84
2023/10/25 00:37:21;;;;;;;16.10;12.07;;;;;;;19.92;100.00;95118.53;5020919;28;20482;-83
2023/10/25 00:39:47;;;;;;;14.83;12.47;;;;;;;19.48;100.00;95121.03;5039752;28;20643;-83
2023/10/25 00:42:13;;;;;;;14.80;11.93;;;;;;;19.45;100.00;95126.84;5027485;28;20033;-83
2023/10/25 00:44:39;;;;;;;14.93;12.63;;;;;;;19.19;100.00;95127.47;5043776;28;20040;-84
2023/10/25 00:47:05;;;;;;;15.83;12.53;;;;;;;19.09;100.00;95130.75;5026517;28;20036;-83
2023/10/25 00:49:32;;;;;;;15.03;11.90;;;;;;;18.63;100.00;95134.38;5024885;28;20933;-84
2023/10/25 00:51:57;;;;;;;15.03;12.80;;;;;;;18.95;100.00;95138.22;5045537;28;20071;-83
2023/10/25 00:54:23;;;;;;;13.53;11.60;;;;;;;19.14;100.00;95128.16;5026278;28;20056;-83
2023/10/25 00:56:50;;;;;;;12.10;9.90;;;;;;;18.72;100.00;95125.81;5027392;28;20044;-83
2023/10/25 00:59:17;;;;;;;13.13;9.93;;;;;;;18.83;100.00;95121.47;5026911;28;20032;-83
2023/10/25 01:01:45;;;;;;;12.63;10.23;;;;;;;18.42;100.00;95123.31;5049059;28;20421;-84
2023/10/25 01:04:11;;;;;;;13.87;9.47;;;;;;;18.76;100.00;95115.47;5035513;28;20077;-83
2023/10/25 01:06:37;;;;;;;10.83;8.80;;;;;;;18.83;100.00;95111.63;5027881;28;20036;-86
2023/10/25 01:09:03;;;;;;;12.37;8.20;;;;;;;19.02;100.00;95114.09;5031438;28;20029;-83
2023/10/25 01:11:29;;;;;;;11.23;8.00;;;;;;;19.33;100.00;95110.09;5034025;28;20092;-84
2023/10/25 01:13:55;;;;;;;10.37;7.17;;;;;;;19.37;100.00;95108.56;5044210;28;20370;-83
2023/10/25 01:16:20;;;;;;;10.10;7.37;;;;;;;19.25;100.00;95111.31;5039376;28;20028;-84
2023/10/25 01:18:46;;;;;;;9.63;7.90;;;;;;;19.38;100.00;95099.50;5036452;28;20020;-83
2023/10/25 01:21:12;;;;;;;9.10;7.03;;;;;;;19.55;100.00;95097.66;5015945;28;20029;-84
2023/10/25 01:23:39;;;;;;;12.27;6.80;;;;;;;19.76;100.00;95093.47;5018767;28;20028;-84
2023/10/25 01:26:05;;;;;;;9.20;6.50;;;;;;;19.79;100.00;95094.84;5018577;28;20028;-83
2023/10/25 01:28:30;;;;;;;9.27;6.77;;;;;;;19.86;100.00;95092.81;5027903;28;20122;-83
2023/10/25 01:30:56;;;;;;;9.37;6.40;;;;;;;19.69;100.00;95097.38;5032794;28;20017;-83
2023/10/25 01:33:21;;;;;;;7.90;6.40;;;;;;;19.64;100.00;95099.94;5045317;28;20028;-83
2023/10/25 01:35:47;;;;;;;7.87;6.00;;;;;;;19.80;100.00;95098.31;5010372;28;20063;-83
2023/10/25 01:38:13;;;;;;;8.33;6.20;;;;;;;19.43;100.00;95098.78;5020847;28;20561;-84
2023/10/25 01:40:38;;;;;;;7.33;5.50;;;;;;;19.59;100.00;95099.84;5024543;28;20345;-83
2023/10/25 01:43:04;;;;;;;10.37;6.03;;;;;;;18.87;100.00;95095.97;5022752;28;20017;-83
2023/10/25 01:45:30;;;;;;;11.03;8.77;;;;;;;18.91;100.00;95091.78;5012462;28;20120;-83
2023/10/25 01:47:55;;;;;;;13.30;10.30;;;;;;;18.47;100.00;95086.13;5011162;28;20028;-83
2023/10/25 01:50:21;;;;;;;12.20;8.70;;;;;;;18.32;100.00;95094.63;5032846;28;20025;-83
2023/10/25 01:52:47;;;;;;;10.57;8.10;;;;;;;18.59;100.00;95092.25;5044930;28;20103;-83
2023/10/25 01:55:13;;;;;;;10.00;8.13;;;;;;;18.35;100.00;95090.69;5015236;28;20482;-83
2023/10/25 01:57:39;;;;;;;10.93;7.77;;;;;;;18.05;100.00;95098.88;5017193;28;20036;-83
2023/10/25 02:00:06;;;;;;;9.10;7.47;;;;;;;18.04;100.00;95092.75;5010604;28;20032;-83
2023/10/25 02:02:38;;;;;;;8.90;7.03;;;;;;;18.44;100.00;95089.25;5033497;28;20049;-83
2023/10/25 02:05:04;;;;;;;8.77;6.73;;;;;;;17.95;100.00;95094.13;5024517;28;20044;-83
2023/10/25 02:07:30;;;;;;;8.83;6.67;;;;;;;18.00;100.00;95094.22;5032543;28;20037;-83
2023/10/25 02:09:55;;;;;;;9.33;7.43;;;;;;;18.18;100.00;95081.84;5016357;28;20325;-84
2023/10/25 02:12:24;;;;;;;9.43;7.70;;;;;;;17.84;100.00;95084.28;5028039;28;20477;-84
2023/10/25 02:14:50;;;;;;;8.93;7.00;;;;;;;17.88;100.00;95088.13;5011724;28;20021;-84
2023/10/25 02:17:15;;;;;;;8.77;6.53;;;;;;;17.54;100.00;95095.00;5026627;28;20398;-84
2023/10/25 02:19:41;;;;;;;11.40;7.70;;;;;;;17.55;100.00;95094.78;5011995;28;20108;-84
2023/10/25 02:22:07;;;;;;;9.73;8.50;;;;;;;17.70;100.00;95099.66;5014700;28;20025;-84
2023/10/25 02:24:32;;;;;;;9.23;7.83;;;;;;;17.33;100.00;95102.50;5015316;28;20037;-84
2023/10/25 02:26:58;;;;;;;10.40;8.37;;;;;;;17.34;100.00;95108.66;5013758;28;20390;-83
2023/10/25 02:29:24;;;;;;;10.40;8.60;;;;;;;17.79;100.00;95105.47;5006392;28;20032;-83
2023/10/25 02:31:50;;;;;;;10.13;7.60;;;;;;;17.66;100.00;95107.28;5035314;28;20032;-84
2023/10/25 02:34:15;;;;;;;9.00;6.83;;;;;;;17.37;100.00;95108.16;5015373;28;20051;-84
2023/10/25 02:36:41;;;;;;;10.30;6.87;;;;;;;17.38;100.00;95109.81;5018601;28;20032;-84
2023/10/25 02:39:06;;;;;;;9.40;7.23;;;;;;;17.24;100.00;95101.25;5008897;28;20032;-84
2023/10/25 02:41:32;;;;;;;9.00;6.70;;;;;;;17.76;100.00;95090.78;5034207;28;20044;-83
2023/10/25 02:43:58;;;;;;;10.37;6.73;;;;;;;17.28;100.00;95096.28;5016923;28;20028;-84
2023/10/25 02:46:24;;;;;;;8.47;6.33;;;;;;;17.34;100.00;95098.03;5013608;28;20482;-83
2023/10/25 02:48:50;;;;;;;9.40;5.83;;;;;;;17.18;100.00;95097.63;5033511;28;20028;-84
2023/10/25 02:51:17;;;;;;;9.87;5.33;;;;;;;17.52;100.00;95097.09;5011270;28;20486;-84
2023/10/25 02:53:43;;;;;;;8.50;5.97;;;;;;;17.16;100.00;95099.69;5012290;28;20028;-83
2023/10/25 02:56:08;;;;;;;10.17;5.57;;;;;;;17.31;100.00;95099.28;5047145;28;20032;-84
2023/10/25 02:58:34;;;;;;;9.40;5.77;;;;;;;17.60;100.00;95092.25;5036399;28;20031;-84
2023/10/25 03:01:01;;;;;;;8.80;6.53;;;;;;;17.50;100.00;95096.53;5013578;28;20604;-84
2023/10/25 03:03:28;;;;;;;9.80;6.43;;;;;;;17.52;100.00;95092.59;5011334;28;20514;-83
2023/10/25 03:05:54;;;;;;;7.30;5.60;;;;;;;17.73;100.00;95090.41;5032777;28;20063;-84
2023/10/25 03:08:20;;;;;;;8.43;6.50;;;;;;;17.65;100.00;95080.94;5034755;28;20028;-83
2023/10/25 03:10:46;;;;;;;10.23;5.80;;;;;;;17.47;100.00;95076.53;5015430;28;20090;-84
2023/10/25 03:13:11;;;;;;;7.30;5.63;;;;;;;17.19;100.00;95078.00;5016340;28;20027;-84
2023/10/25 03:15:37;;;;;;;7.37;5.90;;;;;;;17.57;100.00;95062.66;5010923;28;20082;-84
2023/10/25 03:18:03;;;;;;;12.13;6.03;;;;;;;17.20;100.00;95061.03;5011329;28;20028;-83
2023/10/25 03:20:32;;;;;;;7.50;5.80;;;;;;;17.54;100.00;95060.47;5004545;28;20060;-84
2023/10/25 03:22:58;;;;;;;7.77;5.57;;;;;;;17.26;100.00;95058.50;4999693;28;20051;-83
2023/10/25 03:25:23;;;;;;;8.60;5.80;;;;;;;17.51;100.00;95063.59;5008495;28;20106;-83
2023/10/25 03:27:49;;;;;;;8.37;6.10;;;;;;;17.81;100.00;95066.97;5018758;28;20025;-83
2023/10/25 03:30:16;;;;;;;8.53;5.50;;;;;;;17.35;100.00;95065.09;5013980;28;20052;-83
2023/10/25 03:32:41;;;;;;;9.63;5.37;;;;;;;17.49;100.00;95058.50;5010366;28;20032;-84
2023/10/25 03:35:07;;;;;;;8.17;5.60;;;;;;;17.47;100.00;95059.75;5032623;28;20373;-83
2023/10/25 03:37:33;;;;;;;7.07;5.27;;;;;;;17.53;100.00;95059.66;5011881;28;20407;-83
2023/10/25 03:39:58;;;;;;;7.27;5.63;;;;;;;17.20;100.00;95055.72;5017782;28;20142;-84
2023/10/25 03:42:24;;;;;;;8.63;5.63;;;;;;;17.33;100.00;95059.19;5014683;28;20107;-84
2023/10/25 03:44:49;;;;;;;8.97;5.73;;;;;;;17.50;100.00;95054.78;5011357;28;20369;-84
2023/10/25 03:47:15;;;;;;;7.37;5.67;;;;;;;17.41;100.00;95048.22;5038547;28;20128;-84
2023/10/25 03:49:40;;;;;;;10.50;6.13;;;;;;;17.73;100.00;95045.19;5023375;28;20533;-83
2023/10/25 03:52:06;;;;;;;9.03;6.73;;;;;;;17.76;100.00;95040.25;5027579;28;20098;-84
2023/10/25 03:54:36;;;;;;;8.80;5.73;;;;;;;17.66;100.00;95038.16;5002628;28;20115;-83
2023/10/25 03:57:02;;;;;;;8.40;5.93;;;;;;;17.37;100.00;95049.69;5032486;28;20522;-84
2023/10/25 03:59:27;;;;;;;6.67;5.17;;;;;;;17.17;100.00;95042.91;5017774;28;20155;-84
2023/10/25 04:01:53;;;;;;;8.13;6.03;;;;;;;17.08;100.00;95049.56;5018497;28;20028;-84
2023/10/25 04:04:18;;;;;;;8.77;5.50;;;;;;;16.92;100.00;95044.91;5024204;28;20028;-84
2023/10/25 04:06:44;;;;;;;8.07;5.90;;;;;;;17.29;100.00;95047.41;5027958;28;20024;-83
2023/10/25 04:09:10;;;;;;;7.93;6.00;;;;;;;17.20;100.00;95044.25;5028482;28;20118;-83
2023/10/25 04:11:36;;;;;;;8.77;6.20;;;;;;;17.09;100.00;95037.91;5044477;28;20143;-83
2023/10/25 04:14:02;;;;;;;9.87;6.00;;;;;;;17.26;100.00;95039.88;5017708;28;20056;-83
2023/10/25 04:16:28;;;;;;;6.93;5.27;;;;;;;17.08;100.00;95038.94;5026684;28;20234;-84
2023/10/25 04:18:53;;;;;;;7.67;5.80;;;;;;;17.30;100.00;95033.06;5013491;28;20036;-83
2023/10/25 04:21:19;;;;;;;9.23;5.90;;;;;;;16.95;100.00;95032.00;5008692;28;20033;-84
2023/10/25 04:23:44;;;;;;;8.10;5.83;;;;;;;16.76;100.00;95033.09;5007016;28;20402;-84
2023/10/25 04:26:12;;;;;;;21.13;18.33;;;;;;;16.79;100.00;95029.19;5049288;28;20364;-84
2023/10/25 04:28:40;;;;;;;11.10;9.60;;;;;;;16.91;100.00;95027.38;5030122;28;20306;-86
2023/10/25 04:31:10;;;;;;;12.07;8.47;;;;;;;17.32;100.00;95017.72;5014798;28;20799;-83
2023/10/25 04:33:37;;;;;;;9.70;7.30;;;;;;;17.03;100.00;95030.03;5024449;28;20433;-84
2023/10/25 04:36:12;;;;;;;17.77;13.47;;;;;;;17.59;100.00;95016.19;5013022;28;20040;-83
2023/10/25 04:38:37;;;;;;;9.60;7.63;;;;;;;17.29;100.00;95018.19;5031849;28;20091;-83
2023/10/25 04:41:03;;;;;;;11.07;7.30;;;;;;;17.59;100.00;95005.56;5037688;28;20063;-83
2023/10/25 04:43:28;;;;;;;10.00;7.33;;;;;;;17.78;100.00;95008.13;5015553;28;20040;-82
2023/10/25 04:45:54;;;;;;;8.60;6.97;;;;;;;17.76;100.00;95013.66;5033862;28;20024;-84
2023/10/25 04:48:20;;;;;;;9.90;7.57;;;;;;;17.47;100.00;95004.78;5016707;28;20024;-84
2023/10/25 04:50:45;;;;;;;11.37;7.97;;;;;;;17.20;100.00;95018.53;5011271;28;20024;-83
2023/10/25 04:53:11;;;;;;;10.83;8.37;;;;;;;17.68;100.00;94998.84;5016373;28;20556;-84
2023/10/25 04:55:37;;;;;;;12.23;8.23;;;;;;;17.50;100.00;94993.66;5027964;28;20038;-84
2023/10/25 04:58:04;;;;;;;11.80;7.97;;;;;;;17.44;100.00;94991.97;5022402;28;20020;-84
2023/10/25 05:00:31;;;;;;;11.20;7.90;;;;;;;17.62;100.00;95004.28;5023469;28;20292;-84
2023/10/25 05:02:57;;;;;;;12.87;8.47;;;;;;;17.88;100.00;94987.06;5027776;28;20053;-84
2023/10/25 05:05:23;;;;;;;11.97;8.47;;;;;;;17.47;100.00;94994.16;5005735;28;20068;-84
2023/10/25 05:07:51;;;;;;;16.80;10.90;;;;;;;17.68;100.00;94990.88;5013416;28;20017;-84
2023/10/25 05:10:17;;;;;;;16.10;11.20;;;;;;;17.28;100.00;94990.00;5014705;28;20205;-83
2023/10/25 05:12:46;;;;;;;14.20;9.80;;;;;;;17.17;100.00;94987.09;5040925;28;20689;-84
2023/10/25 05:15:17;;;;;;;11.50;8.07;;;;;;;16.75;100.00;94983.69;5023079;28;20787;-83
2023/10/25 05:17:44;;;;;;;10.97;8.30;;;;;;;16.75;100.00;94980.25;5017461;28;20068;-83
2023/10/25 05:20:12;;;;;;;8.73;6.77;;;;;;;16.83;100.00;94964.78;5031108;28;20024;-84
2023/10/25 05:22:39;;;;;;;10.40;7.23;;;;;;;17.12;100.00;94971.03;5012535;28;20029;-84
2023/10/25 05:25:07;;;;;;;9.33;6.67;;;;;;;16.57;100.00;94975.81;5026691;28;20020;-84
2023/10/25 05:27:35;;;;;;;8.70;6.57;;;;;;;16.26;100.00;94970.53;5016879;28;20086;-84
2023/10/25 05:30:04;;;;;;;7.93;5.33;;;;;;;16.65;100.00;94965.66;5014261;28;20031;-83
2023/10/25 05:32:32;;;;;;;10.27;5.73;;;;;;;16.28;100.00;94964.97;5007378;28;20025;-84
2023/10/25 05:35:00;;;;;;;8.57;5.60;;;;;;;15.82;100.00;94969.03;5025203;28;20032;-84
2023/10/25 05:37:27;;;;;;;10.03;5.37;;;;;;;15.90;100.00;94973.25;5026087;28;20549;-84
2023/10/25 05:39:52;;;;;;;9.03;5.13;;;;;;;16.18;100.00;94967.34;5023283;28;20356;-84
2023/10/25 05:42:19;;;;;;;9.13;5.93;;;;;;;16.36;100.00;94969.13;5004757;28;20044;-84
2023/10/25 05:44:47;;;;;;;8.53;6.13;;;;;;;16.72;100.00;94971.66;5010744;28;20511;-84
2023/10/25 05:47:14;;;;;;;10.43;5.77;;;;;;;16.63;100.00;94970.38;5013439;28;20013;-84
2023/10/25 05:49:41;;;;;;;9.63;6.20;;;;;;;16.09;100.00;94972.16;5025571;28;20033;-84
2023/10/25 05:52:09;;;;;;;8.60;5.90;;;;;;;15.95;100.00;94970.72;5020215;28;20099;-84
2023/10/25 05:54:36;;;;;;;9.50;6.43;;;;;;;16.25;100.00;94971.53;5009519;28;20371;-84
2023/10/25 05:57:02;;;;;;;9.83;6.03;;;;;;;15.97;100.00;94966.81;5028612;28;20055;-83
2023/10/25 05:59:28;;;;;;;11.30;6.87;;;;;;;16.95;100.00;94956.84;5050635;28;20091;-82
2023/10/25 06:02:14;;;;;;;12.17;7.27;;;;;;;16.81;100.00;94966.06;5015998;28;20124;-83
2023/10/25 06:04:42;;;;;;;10.13;6.07;;;;;;;17.35;100.00;94956.13;5028973;28;20378;-83
2023/10/25 06:07:12;;;;;;;9.23;6.20;;;;;;;17.26;100.00;94950.34;5036834;28;20072;-83
2023/10/25 06:09:38;;;;;;;12.07;6.13;;;;;;;16.95;100.00;94952.31;5012273;28;20067;-83
2023/10/25 06:12:04;;;;;;;9.27;6.27;;;;;;;17.15;100.00;94951.97;5027175;28;20024;-83
2023/10/25 06:14:31;;;;;;;7.83;5.60;;;;;;;17.44;100.00;94941.47;5015509;28;20024;-83
2023/10/25 06:17:00;;;;;;;8.13;5.67;;;;;;;17.43;100.00;94947.78;5030519;28;20047;-83
2023/10/25 06:19:27;;;;;;;9.30;5.87;;;;;;;17.51;100.00;94944.78;5029138;28;20031;-83
2023/10/25 06:21:53;;;;;;;8.73;5.53;;;;;;;17.02;100.00;94946.91;5010090;28;20021;-83
2023/10/25 06:24:19;;;;;;;8.40;5.77;;;;;;;16.43;100.00;94948.63;5032991;28;20699;-83
2023/10/25 06:26:45;;;;;;;8.67;5.70;;;;;;;16.49;100.00;94942.41;5038640;28;20040;-83
2023/10/25 06:29:10;;;;;;;9.83;6.17;;;;;;;16.45;100.00;94935.94;5011981;28;20067;-83
2023/10/25 06:31:36;;;;;;;8.13;5.57;;;;;;;16.23;100.00;94940.94;5046543;28;20021;-83
2023/10/25 06:34:02;;;;;;;10.03;5.83;;;;;;;15.83;100.00;94940.69;5031915;28;20025;-83
2023/10/25 06:36:27;;;;;;;8.93;6.20;;;;;;;16.42;100.00;94934.56;5031145;28;20025;-83
2023/10/25 06:38:53;;;;;;;12.07;6.93;;;;;;;16.82;100.00;94941.91;5032827;28;20476;-83
2023/10/25 06:41:24;;;;;;;13.63;6.87;;;;;;;17.14;100.00;94944.25;5013025;28;20021;-83
2023/10/25 06:43:50;;;;;;;11.70;7.77;;;;;;;16.96;100.00;94943.31;5014879;28;20482;-83
2023/10/25 06:46:17;;;;;;;10.43;7.27;;;;;;;16.62;100.00;94946.72;5015618;28;20429;-84
2023/10/25 06:48:42;;;;;;;10.70;7.33;;;;;;;16.57;100.00;94936.00;5032536;28;20037;-83
2023/10/25 06:51:09;;;;;;;9.13;6.67;;;;;;;17.15;100.00;94930.72;5031892;28;20719;-84
2023/10/25 06:53:36;;;;;;;9.03;5.70;;;;;;;17.22;100.00;94927.94;5034309;28;20029;-83
2023/10/25 06:56:03;;;;;;;12.40;7.00;;;;;;;17.65;100.00;94924.88;5026004;28;20752;-84
2023/10/25 06:58:29;;;;;;;9.70;6.23;;;;;;;18.24;100.00;94919.38;5011761;28;20132;-84
2023/10/25 07:00:58;;;;;;;7.83;5.37;;;;;;;18.75;100.00;94911.47;5020125;28;20155;-83
2023/10/25 07:03:31;;;;;;;8.27;5.60;;;;;;;18.96;100.00;94913.38;5010107;28;20039;-83
2023/10/25 07:05:59;;;;;;;8.13;5.13;;;;;;;18.88;100.00;94912.97;5012954;28;20040;-84
2023/10/25 07:08:25;;;;;;;9.87;5.73;;;;;;;18.79;100.00;94907.25;5016647;28;20021;-83
2023/10/25 07:10:51;;;;;;;9.13;5.00;;;;;;;18.86;100.00;94901.78;5018555;28;21718;-83
2023/10/25 07:13:18;;;;;;;5.07;3.37;;;;;;;18.42;100.00;94907.72;5025250;28;20033;-84
2023/10/25 07:15:43;;;;;;;6.10;2.87;;;;;;;18.59;100.00;94897.06;5022660;28;20020;-84
2023/10/25 07:18:09;;;;;;;6.60;3.63;;;;;;;18.68;100.00;94905.44;5034571;28;20394;-84
2023/10/25 07:20:38;;;;;;;6.70;4.37;;;;;;;18.46;100.00;94916.81;5024502;28;20025;-83
2023/10/25 07:23:04;;;;;;;6.50;4.10;;;;;;;18.34;100.00;94908.91;5047501;28;20021;-82
2023/10/25 07:25:31;;;;;;;7.77;3.90;;;;;;;19.66;100.00;94889.81;5040279;28;20051;-83
2023/10/25 07:27:57;;;;;;;6.60;3.33;;;;;;;20.13;95.65;94879.38;5022352;28;20037;-83
2023/10/25 07:30:22;;;;;;;4.97;2.87;;;;;;;20.08;92.51;94878.53;5014286;28;20029;-84
2023/10/25 07:32:48;;;;;;;5.27;3.03;;;;;;;20.20;92.42;94871.97;5016419;28;20032;-84
2023/10/25 07:35:15;;;;;;;5.43;3.07;;;;;;;21.07;90.59;94871.88;5015665;28;20040;-84
2023/10/25 07:37:41;;;;;;;6.07;3.00;;;;;;;21.73;80.14;94866.06;5023053;28;20032;-83
2023/10/25 07:40:07;;;;;;;6.97;3.17;;;;;;;22.11;77.22;94862.16;5030453;28;20033;-83
2023/10/25 07:42:33;;;;;;;4.70;2.53;;;;;;;22.03;70.52;94863.50;5013415;28;20442;-84
2023/10/25 07:44:59;;;;;;;4.80;2.30;;;;;;;22.30;75.05;94863.31;5026288;28;20032;-84
2023/10/25 07:47:24;;;;;;;3.97;2.10;;;;;;;22.71;70.51;94852.59;5020903;28;20025;-84
2023/10/25 07:49:50;;;;;;;5.43;2.13;;;;;;;23.20;69.57;94854.66;5015198;28;20036;-84
2023/10/25 07:52:17;;;;;;;4.20;2.20;;;;;;;22.79;64.54;94848.56;5022166;28;20017;-85
2023/10/25 07:54:43;;;;;;;3.70;2.00;;;;;;;22.93;67.33;94844.28;5015653;28;20033;-83
2023/10/25 07:57:08;;;;;;;5.03;2.00;;;;;;;23.86;62.04;94836.75;5030727;28;20347;-84
2023/10/25 07:59:34;;;;;;;4.85;2.10;;;;;;;23.52;64.71;94832.03;5021402;28;20035;-84
2023/10/25 08:02:00;;;;;;;3.92;1.90;;;;;;;23.12;63.65;94841.81;5014759;28;20495;-83
2023/10/25 08:04:38;;;;;;;3.35;2.13;;;;;;;24.04;61.56;94844.16;5024361;28;20035;-84
2023/10/25 08:07:07;;;;;;;3.22;1.80;;;;;;;23.70;60.15;94841.38;5018425;28;20032;-83
2023/10/25 08:09:32;;;;;;;4.97;2.17;;;;;;;23.53;61.81;94847.06;5011748;28;20024;-83
2023/10/25 08:11:59;;;;;;;3.53;1.80;;;;;;;24.60;57.35;94849.16;5037351;28;20344;-84
2023/10/25 08:14:24;;;;;;;2.88;1.90;;;;;;;25.15;55.54;94844.41;5035999;28;20032;-83
2023/10/25 08:16:50;;;;;;;4.57;1.90;;;;;;;24.66;55.99;94847.25;5031909;28;20021;-83
2023/10/25 08:19:16;;;;;;;3.15;2.05;;;;;;;23.68;57.84;94838.19;5034595;28;20486;-83
2023/10/25 08:21:41;;;;;;;3.25;1.85;;;;;;;22.87;60.43;94834.63;5040632;28;20098;-84
2023/10/25 08:24:07;;;;;;;3.35;1.88;;;;;;;23.05;63.83;94825.22;5013322;28;20108;-83
2023/10/25 08:26:39;;;;;;;2.80;1.58;;;;;;;22.92;71.56;94825.75;5013323;28;20021;-83
2023/10/25 08:29:07;;;;;;;2.55;1.10;;;;;;;22.80;73.63;94820.66;5047231;28;20023;-84
2023/10/25 08:31:33;;;;;;;2.45;1.50;;;;;;;22.86;67.78;94824.16;5034740;28;20103;-83
2023/10/25 08:33:59;;;;;;;4.30;1.48;;;;;;;23.58;64.57;94820.22;5019694;28;20018;-83
2023/10/25 08:36:26;;;;;;;2.92;1.60;;;;;;;24.77;59.33;94813.81;5011397;28;20039;-84
2023/10/25 08:38:51;;;;;;;2.85;1.40;;;;;;;25.13;58.71;94814.28;5018998;28;20092;-83
2023/10/25 08:41:19;;;;;;;4.07;1.70;;;;;;;24.47;58.31;94809.50;5013682;28;20029;-83
2023/10/25 08:43:45;;;;;;;4.80;1.98;;;;;;;23.63;65.26;94809.44;5031761;28;20074;-83
2023/10/25 08:46:13;;;;;;;1.98;1.02;;;;;;;23.60;62.69;94799.25;5027011;28;20112;-83
2023/10/25 08:48:38;;;;;;;2.20;1.40;;;;;;;22.97;64.69;94821.22;5021540;28;20115;-83
2023/10/25 08:51:05;;;;;;;3.13;1.63;;;;;;;21.77;79.67;94810.97;5016287;28;20681;-82
2023/10/25 08:53:31;;;;;;;2.10;1.40;;;;;;;21.60;80.55;94801.28;5013304;28;20686;-83
2023/10/25 08:55:58;;;;;;;3.60;1.83;;;;;;;23.86;68.09;94796.47;5013396;28;20029;-82
2023/10/25 08:58:25;;;;;;;3.08;1.50;;;;;;;22.88;68.69;94804.06;5037742;28;20024;-82
2023/10/25 09:00:52;;;;;;;2.22;1.45;;;;;;;23.71;65.98;94800.06;5037880;28;20370;-82
2023/10/25 09:03:30;;;;;;;3.50;1.80;;;;;;;24.65;60.91;94792.69;5008870;28;20113;-82
2023/10/25 09:05:56;;;;;;;2.00;1.40;;;;;;;26.28;54.18;94799.88;5020355;28;20029;-83
2023/10/25 09:08:22;;;;;;;2.20;1.65;;;;;;;25.72;54.48;94797.97;5014376;28;20048;-82
2023/10/25 09:11:01;;;;;;;3.25;1.98;;;;;;;24.83;56.24;94798.44;5016379;28;20024;-82
2023/10/25 09:13:27;;;;;;;3.55;1.73;;;;;;;25.58;55.22;94798.66;5030307;28;20054;-83
2023/10/25 09:16:02;;;;;;;3.85;2.08;;;;;;;26.27;53.04;94798.28;5030715;28;20040;-83
2023/10/25 09:18:27;;;;;;;2.58;1.60;;;;;;;26.72;50.94;94791.38;5032884;28;20032;-82
2023/10/25 09:20:54;;;;;;;4.15;2.20;;;;;;;25.03;57.88;94792.84;5027150;28;20017;-83
2023/10/25 09:23:19;;;;;;;7.35;3.05;;;;;;;25.53;54.49;94792.56;5013542;28;20014;-83
2023/10/25 09:25:45;;;;;;;3.53;2.15;;;;;;;26.02;55.00;94786.00;5031241;28;20075;-83
2023/10/25 09:28:15;;;;;;;4.35;2.00;;;;;;;23.33;59.31;94782.75;5020788;28;20017;-84
2023/10/25 09:30:42;;;;;;;2.53;1.60;;;;;;;22.74;66.54;94792.28;5027981;28;20155;-84
2023/10/25 09:33:10;;;;;;;2.97;1.83;;;;;;;22.78;71.81;94786.09;5018726;28;20020;-84
2023/10/25 09:35:37;;;;;;;2.70;1.65;;;;;;;21.20;84.67;94780.53;5022439;28;20024;-84
2023/10/25 09:38:03;;;;;;;4.18;2.08;;;;;;;21.61;84.99;94776.16;5040041;28;20041;-84
2023/10/25 09:40:37;;;;;;;2.80;1.90;;;;;;;21.91;85.64;94773.78;5020475;28;20032;-84
2023/10/25 09:43:10;;;;;;;3.58;2.10;;;;;;;21.31;85.19;94768.81;5017387;28;20043;-84
2023/10/25 09:45:36;;;;;;;4.38;2.22;;;;;;;20.81;93.70;94756.03;5044514;28;20816;-85
2023/10/25 09:48:08;;;;;;;4.05;2.15;;;;;;;21.07;94.44;94752.41;5022561;28;20032;-84
2023/10/25 09:50:37;;;;;;;4.80;2.30;;;;;;;21.19;90.97;94749.50;5027643;28;20021;-84
2023/10/25 09:53:44;;;;;;;3.63;2.33;;;;;;;20.79;90.35;94752.78;5015886;28;20025;-84
2023/10/25 09:56:10;;;;;;;3.28;2.03;;;;;;;19.93;100.00;94754.59;5020785;28;20119;-84
2023/10/25 09:58:36;;;;;;;3.40;2.10;;;;;;;20.02;100.00;94745.06;5017585;28;20094;-84
2023/10/25 10:01:03;;;;;;;4.97;2.23;;;;;;;20.89;100.00;94742.16;5020797;28;20048;-84
2023/10/25 10:04:08;;;;;;;4.87;2.10;;;;;;;19.94;100.00;94748.19;5017390;28;20383;-84
2023/10/25 10:06:38;;;;;;;3.33;2.10;;;;;;;21.63;93.74;94741.13;5031118;28;20118;-83
2023/10/25 10:09:22;;;;;;;5.27;2.37;;;;;;;22.20;85.04;94752.69;5031973;28;20032;-84
2023/10/25 10:11:52;;;;;;;4.50;2.40;;;;;;;20.87;99.55;94745.09;5032739;28;20032;-84
2023/10/25 10:14:41;;;;;;;3.50;2.40;;;;;;;21.10;100.00;94745.75;5015703;28;20378;-84
2023/10/25 10:17:09;;;;;;;5.93;2.57;;;;;;;20.90;100.00;94741.91;5028382;28;20133;-85
2023/10/25 10:19:40;;;;;;;4.67;2.57;;;;;;;20.73;100.00;94737.81;5018441;28;20051;-85
2023/10/25 10:22:11;;;;;;;4.33;2.40;;;;;;;20.59;100.00;94732.13;5015105;28;20040;-85
2023/10/25 10:24:47;;;;;;;4.13;2.43;;;;;;;20.48;100.00;94733.91;5022846;28;20203;-85
2023/10/25 10:27:19;;;;;;;3.97;2.33;;;;;;;20.32;100.00;94735.69;5016093;28;20048;-85
2023/10/25 10:29:49;;;;;;;4.10;2.40;;;;;;;20.33;100.00;94726.59;5017002;28;20499;-85
2023/10/25 10:32:15;;;;;;;5.13;2.10;;;;;;;20.66;100.00;94714.00;5022069;28;20013;-86
2023/10/25 10:34:49;;;;;;;3.70;2.30;;;;;;;20.95;99.49;94717.88;5024798;28;20086;-86
2023/10/25 10:37:22;;;;;;;3.67;2.43;;;;;;;21.18;100.00;94708.59;5039641;28;20021;-86
2023/10/25 10:39:57;;;;;;;4.63;2.80;;;;;;;20.44;100.00;94717.59;5013531;28;20030;-86
2023/10/25 10:42:28;;;;;;;4.33;2.40;;;;;;;20.99;100.00;94717.34;5016713;28;20072;-85
2023/10/25 10:44:58;;;;;;;3.47;2.13;;;;;;;21.18;100.00;94713.16;5020120;28;20029;-85
2023/10/25 10:47:42;;;;;;;4.57;2.87;;;;;;;21.09;100.00;94704.84;5017083;28;20101;-86
2023/10/25 10:50:07;;;;;;;;;;;;;;;21.28;100.00;94688.31;5020159;28;20025;-85
2023/10/25 10:52:33;;;;;;;5.80;2.57;;;;;;;21.12;100.00;94679.44;5022249;28;19909;-85
2023/10/25 10:54:59;;;;;;;5.37;3.20;;;;;;;21.78;100.00;94674.22;5042855;28;20021;-85
2023/10/25 10:57:25;;;;;;;4.07;2.63;;;;;;;21.63;100.00;94666.22;5037159;28;20016;-85
2023/10/25 10:59:55;;;;;;;5.47;2.60;;;;;;;21.44;100.00;94667.78;5027843;28;20122;-85
2023/10/25 11:02:21;;;;;;;4.03;2.43;;;;;;;21.10;100.00;94668.22;5019765;28;20029;-82
2023/10/25 11:04:53;;;;;;;4.17;2.30;;;;;;;20.91;100.00;94665.22;5033182;28;20136;-82
2023/10/25 11:07:18;;;;;;;4.87;2.67;;;;;;;21.60;100.00;94650.69;5015425;28;20121;-83
2023/10/25 11:09:54;;;;;;;3.63;2.20;;;;;;;21.45;100.00;94646.13;5016262;28;20025;-82
2023/10/25 11:12:20;;;;;;;3.70;1.93;;;;;;;20.94;100.00;94651.34;5032749;28;20017;-82
2023/10/25 11:14:47;;;;;;;5.90;2.17;;;;;;;20.55;100.00;94642.91;5034917;28;20017;-82
2023/10/25 11:17:14;;;;;;;3.90;2.63;;;;;;;21.04;100.00;94648.69;5031879;28;20166;-82
2023/10/25 11:19:45;;;;;;;6.20;3.17;;;;;;;21.06;100.00;94641.22;5018250;28;20025;-82
2023/10/25 11:22:11;;;;;;;4.47;2.63;;;;;;;20.51;100.00;94633.81;5025999;28;20021;-83
2023/10/25 11:24:37;;;;;;;3.80;2.30;;;;;;;21.42;100.00;94628.72;5032121;28;20078;-82